Terminal Aerodrome Forecast
Issued by NWS Shreveport, LA

Home | Current Version | Previous Version | Text Only | Print | Product List | Glossary On
Versions: 1 2 3 4 5 6 7 8 9 10 11 12 13 14 15 16 17 18 19 20 21 22 23 24 25 26
000
FTUS44 KSHV 212320
TAFGGG
TAF
KGGG 212320Z 2200/2224 17010KT P6SM FEW180
     FM220900 17008KT P6SM SCT010 SCT250
      TEMPO 2209/2212 BKN010
     FM221200 17008KT P6SM BKN010
      TEMPO 2214/2216 19012G18KT SCT020
     FM221600 18012G20KT P6SM SCT025 BKN250=

USA.gov is the U.S. government's official web portal to all federal, state and local government web resources and services.